Weather at Poco a Poco Airport

Public forecast

Using degrees Celsius for public forecast. Weather courtesy of forecast.io.

Closest aviation weather report (METAR) to Poco a Poco Airport

Closest report is María Dolores Airport, 33.4 nm (61.8 km) NW. Retrieved 2021/12/05 21:00 UTC (1 minute ago):

SCGE 052100Z 20008KT CAVOK 36/06 Q1010

Closest aviation forecast (TAF) to Poco a Poco Airport

Forecast is more than 12 hours old.

Closest forecast is Traiguén Airport, 40.0 nm (74.1 km) SW. Retrieved 2017/10/13 12:33 UTC (4 years ago):

TAF SPCL 131100Z 1312/1412 VRB02KT 9999 SCTR 131030Z 1312/1412 36003KT 9999 SCT040 TX22/1319Z TN07/1411Z TEMPO 1312/1314 FEW025 BKN043 BECMG 1318/1319 28008KT SCT025 BKN043